• Join FlightAware (Why Join?)
  • Login
  • US Flag 
07:44PM EDT


 

Airport Tracker/Info


-or-


 

Live Flight TrackerFlight Track Log ✈ UAL20 ✈ 23-Apr-2013 ✈ KEWR - EGCC / MAN

Flight Track Log - Related Links

Times and Time Zones

All times are in EDT time to prevent confusion due to time zone crossing. See the UAL20 flight status page for this flight to view local times or setup timezone preferences in your user account.

Time Position Orientation Groundspeed Altitude Reporting Facility
EDT Latitude Longitude Course Direction KTS MPH feet Rate Location/Type
07:45PM 40.7110 -74.1480 201° Southwest 163 188 1,400  Level FlightAware
07:46PM 40.7244 -74.1274 49° Northeast 164 189 1,900 1,500 Climbing FlightAware ADS-B
07:46PM 40.7344 -74.1122 49° Northeast 164 189 2,400 1,980 Climbing FlightAware ADS-B
07:46PM 40.7378 -74.1078 44° Northeast 215 247 2,600 1,980 Climbing FlightAware ADS-B
07:46PM 40.7416 -74.1040 37° Northeast 216 249 2,700 720 Climbing FlightAware ADS-B
07:46PM 40.7450 -74.1014 30° Northeast 216 249 2,700 720 Level FlightAware ADS-B
07:46PM 40.7486 -74.0995 22° Northeast 216 249 2,800 600 Climbing FlightAware ADS-B
07:46PM 40.7545 -74.0979 12° North 215 247 2,800 420 Level FlightAware ADS-B
07:46PM 40.7622 -74.0964 North 215 247 2,900 1,020 Climbing FlightAware ADS-B
07:46PM 40.7718 -74.0954 North 225 259 3,100 1,320 Climbing FlightAware ADS-B
07:47PM 40.7809 -74.0947 North 235 270 3,300 1,380 Climbing FlightAware ADS-B
07:47PM 40.7857 -74.0941 North 239 275 3,400 1,980 Climbing FlightAware ADS-B
07:47PM 40.7903 -74.0930 10° North 241 277 3,600 2,400 Climbing FlightAware ADS-B
07:47PM 40.8063 -74.0853 20° North 249 287 4,200 2,400 Climbing FlightAware ADS-B
07:47PM 40.8142 -74.0805 25° Northeast 255 293 4,500 2,160 Climbing FlightAware ADS-B
07:47PM 40.8178 -74.0781 27° Northeast 257 296 4,600 840 Climbing FlightAware ADS-B
07:47PM 40.8211 -74.0753 33° Northeast 258 297 4,600 960 Level FlightAware ADS-B
07:47PM 40.8243 -74.0723 35° Northeast 258 297 4,700 1,680 Climbing FlightAware ADS-B
07:47PM 40.8278 -74.0683 41° Northeast 260 299 4,800 2,520 Climbing FlightAware ADS-B
07:47PM 40.8307 -74.0645 45° Northeast 261 300 5,000 2,520 Climbing FlightAware ADS-B
07:47PM 40.8333 -74.0602 51° Northeast 262 302 5,100 3,480 Climbing FlightAware ADS-B
07:48PM 40.8393 -74.0491 54° Northeast 260 299 5,700 3,000 Climbing FlightAware ADS-B
07:48PM 40.8492 -74.0285 58° Northeast 265 305 6,300 1,740 Climbing FlightAware ADS-B
07:48PM 40.8594 -74.0070 58° Northeast 268 308 6,600 780 Climbing FlightAware ADS-B
07:48PM 40.8688 -73.9862 59° Northeast 268 308 6,700 600 Climbing FlightAware ADS-B
07:49PM 40.8777 -73.9674 58° Northeast 271 312 6,900 1,860 Climbing FlightAware ADS-B
07:49PM 40.8880 -73.9456 58° Northeast 273 314 7,600 3,000 Climbing FlightAware ADS-B
07:49PM 40.8981 -73.9238 58° Northeast 272 313 8,400 3,000 Climbing FlightAware ADS-B
07:49PM 40.9045 -73.9109 57° Northeast 275 316 8,800 2,400 Climbing FlightAware ADS-B
07:49PM 40.9048 -73.9100 66° East 275 316 8,800 2,400 Level FlightAware ADS-B
07:49PM 40.9083 -73.9047 49° Northeast 276 318 9,000 2,400 Climbing FlightAware ADS-B
07:49PM 40.9138 -73.8974 45° Northeast 276 318 9,200 2,220 Climbing FlightAware ADS-B
07:49PM 40.9155 -73.8951 46° Northeast 276 318 9,300 2,700 Climbing FlightAware ADS-B
07:50PM 40.9237 -73.8848 44° Northeast 278 320 9,700 2,760 Climbing FlightAware ADS-B
07:50PM 40.9275 -73.8796 46° Northeast 279 321 9,900 3,600 Climbing FlightAware ADS-B
07:50PM 40.9284 -73.8784 45° Northeast 280 322 10,000 1,440 Climbing FlightAware ADS-B
07:50PM 40.9534 -73.8326 54° Northeast 310 357 10,700 1,200 Climbing FlightAware ADS-B
07:51PM 40.9919 -73.7667 52° Northeast 353 406 11,500 1,080 Climbing FlightAware ADS-B
07:52PM 41.0290 -73.7060 51° Northeast 388 447 12,200 1,560 Climbing FlightAware
07:52PM 41.0910 -73.6050 51° Northeast 410 472 13,900 2,100 Climbing FlightAware
07:53PM 41.1390 -73.5270 51° Northeast 417 480 15,400 2,160 Climbing FlightAware
07:54PM 41.1930 -73.4380 51° Northeast 422 486 17,000 1,920 Climbing FlightAware
07:55PM 41.3160 -73.2370 51° Northeast 451 519 19,900 1,680 Climbing FlightAware
07:56PM 41.3670 -73.1510 52° Northeast 459 528 20,900 1,500 Climbing FlightAware
07:57PM 41.4210 -73.0370 58° Northeast 469 540 22,100 1,320 Climbing FlightAware
07:57PM 41.4660 -72.9340 60° Northeast 485 558 22,800 480 Climbing FlightAware
07:58PM 41.5120 -72.8310 59° Northeast 487 560 22,800 660 Level FlightAware
07:59PM 41.5540 -72.7320 60° Northeast 466 536 23,800 1,680 Climbing FlightAware
08:00PM 41.6060 -72.6100 60° Northeast 474 545 25,200 1,860 Climbing FlightAware
08:00PM 41.6490 -72.5000 62° Northeast 26,900 1,860 Climbing FlightAware
08:01PM 41.6910 -72.3870 64° Northeast 467 537 28,000 1,320 Climbing FlightAware
08:02PM 41.7310 -72.2820 63° Northeast 478 550 28,700 1,020 Climbing FlightAware
08:03PM 41.7820 -72.1470 63° Northeast 489 563 29,600 960 Climbing FlightAware
08:03PM 41.8150 -72.0600 63° Northeast 496 571 30,100 1,080 Climbing FlightAware
08:04PM 41.8700 -71.9150 63° Northeast 499 574 31,200 1,380 Climbing FlightAware
08:05PM 41.9090 -71.8090 64° Northeast 497 572 32,200 1,320 Climbing FlightAware
08:05PM 41.9500 -71.6980 64° Northeast 499 574 32,900 1,140 Climbing FlightAware
08:06PM 41.9767 -71.6469 64° Northeast 481 554 33,400 1,080 Climbing Boston Center
08:07PM 42.0419 -71.4842 62° Northeast 486 559 34,500 900 Climbing Boston Center
08:08PM 42.1031 -71.3153 64° Northeast 491 565 35,300 780 Climbing Boston Center
08:09PM 42.1658 -71.1461 63° Northeast 496 571 36,100 240 Climbing Boston Center
08:15PM 42.5390 -70.0660 63° Northeast 522 601 37,000 120 Climbing FlightAware
08:16PM 42.5880 -69.9270 64° Northeast 522 601 37,000  Level FlightAware
08:16PM 42.6000 -69.8833 64° Northeast 520 598 37,000  Level Moncton Center
08:17PM 42.6581 -69.7408 61° Northeast 512 589 37,000  Level Boston Center
08:18PM 42.7203 -69.5631 64° Northeast 512 589 37,000  Level Boston Center
08:23PM 43.0260 -68.6440 64° Northeast 527 606 37,000  Level FlightAware
08:24PM 43.0790 -68.4850 65° Northeast 529 609 37,000  Level FlightAware
08:24PM 43.1240 -68.3470 66° East 528 608 37,000  Level FlightAware
08:25PM 43.1770 -68.1880 65° Northeast 530 610 37,000  Level FlightAware
08:26PM 43.2110 -68.0840 66° East 530 610 37,000  Level FlightAware
08:27PM 43.2450 -67.9790 66° East 530 610 37,000  Level FlightAware
08:27PM 43.3110 -67.7780 66° East 530 610 37,000  Level FlightAware
08:28PM 43.3490 -67.6590 66° East 530 610 37,000  Level FlightAware
08:29PM 43.3940 -67.5180 66° East 532 612 37,000  Level FlightAware
08:29PM 43.4350 -67.3920 66° East 532 612 37,000  Level FlightAware
08:30PM 43.4770 -67.2580 67° East 532 612 37,000  Level FlightAware
08:31PM 43.5170 -67.1320 66° East 531 611 37,000  Level FlightAware
08:32PM 43.5580 -67.0110 65° Northeast 529 609 37,000  Level FlightAware
08:32PM 43.6190 -66.8810 57° Northeast 531 611 37,000  Level FlightAware
08:33PM 43.6840 -66.7560 54° Northeast 532 612 37,000  Level FlightAware
08:34PM 43.7430 -66.6450 54° Northeast 532 612 37,000  Level FlightAware
08:34PM 43.8000 -66.5360 54° Northeast 532 612 37,000  Level FlightAware
08:35PM 43.8590 -66.4230 54° Northeast 531 611 37,000  Level FlightAware
08:36PM 43.9270 -66.2930 54° Northeast 530 610 37,000  Level FlightAware
08:37PM 43.9900 -66.1700 55° Northeast 530 610 37,000  Level FlightAware
08:37PM 44.0480 -66.0580 54° Northeast 535 616 37,000  Level FlightAware
08:38PM 44.1060 -65.9440 55° Northeast 535 616 37,000  Level FlightAware
08:39PM 44.1630 -65.8330 54° Northeast 535 616 37,000  Level FlightAware
08:39PM 44.2260 -65.7080 55° Northeast 534 615 37,000  Level FlightAware
08:40PM 44.2680 -65.6250 55° Northeast 534 615 37,000  Level FlightAware
08:40PM 44.3250 -65.5140 54° Northeast 534 615 37,000  Level FlightAware
08:41PM 44.3900 -65.3830 55° Northeast 533 613 37,000  Level FlightAware
08:42PM 44.4460 -65.2720 55° Northeast 532 612 37,000  Level FlightAware
08:43PM 44.5010 -65.1610 55° Northeast 530 610 37,000  Level FlightAware
08:43PM 44.5640 -65.0360 55° Northeast 531 611 37,000  Level FlightAware
08:44PM 44.6220 -64.9180 55° Northeast 526 605 37,000  Level FlightAware
08:45PM 44.6820 -64.7950 56° Northeast 527 606 37,000  Level FlightAware
08:45PM 44.7400 -64.6780 55° Northeast 527 606 37,000  Level FlightAware
08:46PM 44.7950 -64.5650 56° Northeast 527 606 37,000  Level FlightAware
08:47PM 44.8600 -64.4310 56° Northeast 532 612 37,000  Level FlightAware
08:47PM 44.9160 -64.3150 56° Northeast 533 613 37,000  Level FlightAware
08:48PM 44.9780 -64.1870 56° Northeast 534 615 37,000  Level FlightAware
08:49PM 45.0290 -64.0810 56° Northeast 534 615 37,000  Level FlightAware
08:51PM 45.2220 -63.6740 56° Northeast 535 616 37,000  Level FlightAware
08:52PM 45.2750 -63.5620 56° Northeast 37,000  Level FlightAware
08:52PM 45.3000 -63.4667 56° Northeast 530 610 37,000  Level Gander Center
08:53PM 45.3500 -63.3500 59° Northeast 530 610 37,000  Level Moncton Center
08:54PM 45.4333 -63.1833 54° Northeast 530 610 37,000  Level Moncton Center
08:55PM 45.5167 -62.9833 59° Northeast 530 610 37,000  Level Moncton Center
08:56PM 45.6000 -62.8167 54° Northeast 530 610 37,000  Level Moncton Center
09:01PM 46.0530 -61.8550 54° Northeast 531 611 37,000  Level FlightAware
09:02PM 46.1080 -61.7300 58° Northeast 531 611 37,000  Level FlightAware
09:03PM 46.1670 -61.5960 58° Northeast 530 610 37,000  Level FlightAware
09:04PM 46.2190 -61.4770 58° Northeast 530 610 37,000  Level FlightAware
09:04PM 46.2780 -61.3410 58° Northeast 528 608 37,000  Level FlightAware
09:05PM 46.3310 -61.2190 58° Northeast 527 606 37,000  Level FlightAware
09:06PM 46.3820 -61.1010 58° Northeast 526 605 37,000  Level FlightAware
09:06PM 46.4380 -60.9700 58° Northeast 525 604 37,000  Level FlightAware
09:07PM 46.4900 -60.8500 58° Northeast 525 604 37,000  Level FlightAware
09:08PM 46.5410 -60.7300 58° Northeast 524 603 37,000  Level FlightAware
09:08PM 46.5990 -60.5920 59° Northeast 522 601 37,000  Level FlightAware
09:09PM 46.6490 -60.4740 58° Northeast 521 600 37,000  Level FlightAware
09:10PM 46.7050 -60.3410 58° Northeast 521 600 37,000  Level FlightAware
09:11PM 46.7550 -60.2210 59° Northeast 521 600 37,000  Level FlightAware
09:11PM 46.8120 -60.0840 59° Northeast 522 601 37,000  Level FlightAware
09:12PM 46.8620 -59.9630 59° Northeast 521 600 37,000  Level FlightAware
09:13PM 46.9120 -59.8410 59° Northeast 522 601 37,000  Level FlightAware
09:13PM 46.9660 -59.7090 59° Northeast 522 601 37,000  Level FlightAware
09:14PM 47.0150 -59.5880 59° Northeast 522 601 37,000  Level FlightAware
09:15PM 47.0640 -59.4670 59° Northeast 523 602 37,000  Level FlightAware
09:15PM 47.1210 -59.3270 59° Northeast 523 602 37,000  Level FlightAware
09:16PM 47.1710 -59.2030 59° Northeast 524 603 37,000  Level FlightAware
09:17PM 47.2240 -59.0710 59° Northeast 523 602 37,000  Level FlightAware
09:18PM 47.2700 -58.9550 60° Northeast 524 603 37,000  Level FlightAware
09:18PM 47.3110 -58.8540 59° Northeast 524 603 37,000  Level FlightAware
09:19PM 47.3760 -58.6870 60° Northeast 526 605 37,000  Level FlightAware
09:20PM 47.4450 -58.5100 60° Northeast 527 606 37,000  Level FlightAware
09:20PM 47.4830 -58.4130 60° Northeast 527 606 37,000  Level FlightAware
09:21PM 47.5350 -58.2810 60° Northeast 527 606 37,000  Level FlightAware
09:22PM 47.5760 -58.1740 60° Northeast 527 606 37,000  Level FlightAware
09:23PM 47.6180 -58.0680 60° Northeast 527 606 37,000  Level FlightAware
09:23PM 47.6590 -57.9610 60° Northeast 527 606 37,000  Level FlightAware
09:24PM 47.7110 -57.8280 60° Northeast 527 606 37,000  Level FlightAware
09:25PM 47.7980 -57.5920 61° Northeast 525 604 37,000  Level FlightAware
09:25PM 47.8440 -57.4710 60° Northeast 525 604 37,000  Level FlightAware
09:26PM 47.8960 -57.3200 63° Northeast 529 609 37,000 -240 Level FlightAware
09:27PM 47.9560 -57.1340 64° Northeast 531 611 36,600 -540 Descending FlightAware
09:28PM 47.9980 -57.0050 64° Northeast 530 610 36,200 -480 Descending FlightAware
09:29PM 48.0440 -56.8620 64° Northeast 525 604 36,000 -120 Descending FlightAware
09:29PM 48.1030 -56.6810 64° Northeast 520 598 36,000  Level FlightAware
09:30PM 48.1420 -56.5610 64° Northeast 521 600 36,000  Level FlightAware
09:31PM 48.1890 -56.4160 64° Northeast 524 603 36,000  Level FlightAware
09:32PM 48.2420 -56.2490 64° Northeast 526 605 36,000  Level FlightAware
09:33PM 48.2870 -56.1100 64° Northeast 526 605 36,000  Level FlightAware
09:33PM 48.3370 -55.9450 65° Northeast 532 612 36,000  Level FlightAware
09:34PM 48.3910 -55.7760 64° Northeast 533 613 36,000  Level FlightAware
09:35PM 48.4390 -55.6170 65° Northeast 534 615 36,000  Level FlightAware
09:36PM 48.4740 -55.5020 65° Northeast 534 615 36,000  Level FlightAware
09:36PM 48.5230 -55.3400 65° Northeast 534 615 36,000  Level FlightAware
09:37PM 48.5650 -55.2040 65° Northeast 36,000  Level FlightAware
09:38PM 48.6100 -55.0540 66° East 526 605 36,000  Level FlightAware
09:38PM 48.6550 -54.9050 65° Northeast 523 602 36,000  Level FlightAware
09:39PM 48.6870 -54.8000 65° Northeast 520 598 36,000  Level FlightAware
09:40PM 48.7280 -54.6610 66° East 520 598 36,000  Level FlightAware
09:40PM 48.7650 -54.5350 66° East 519 597 36,000  Level FlightAware
09:41PM 48.8170 -54.3600 66° East 517 595 36,000  Level FlightAware
09:42PM 48.8620 -54.2060 66° East 516 594 36,000  Level FlightAware
09:43PM 48.8990 -54.0790 66° East 516 594 36,000  Level FlightAware
09:43PM 48.9390 -53.9410 66° East 515 593 36,000  Level FlightAware
09:44PM 48.9820 -53.7900 66° East 511 588 36,000  Level FlightAware
09:45PM 49.0200 -53.6580 66° East 512 589 36,000  Level FlightAware
09:45PM 49.0580 -53.5220 67° East 512 589 36,000  Level FlightAware
09:46PM 49.1010 -53.3720 66° East 513 590 36,000  Level FlightAware
09:47PM 49.1380 -53.2400 67° East 513 590 36,000  Level FlightAware
09:47PM 49.1800 -53.0900 67° East 514 592 36,000  Level FlightAware
09:48PM 49.2180 -52.9540 67° East 516 594 36,000  Level FlightAware
09:49PM 49.2560 -52.8150 67° East 520 598 36,000  Level FlightAware
09:50PM 49.3060 -52.6330 67° East 521 600 36,000  Level FlightAware
09:50PM 49.3450 -52.4900 67° East 520 598 36,000  Level FlightAware
09:51PM 49.3730 -52.3830 68° East 520 598 36,000  Level FlightAware
09:52PM 49.4110 -52.2370 68° East 520 598 36,000  Level FlightAware
09:53PM 49.4420 -52.1200 68° East 520 598 36,000  Level FlightAware
09:53PM 49.5040 -51.8960 67° East 514 592 36,000  Level FlightAware
09:54PM 49.5390 -51.7640 68° East 510 587 36,000  Level FlightAware
09:55PM 49.5720 -51.6400 68° East 504 580 36,000  Level FlightAware
09:55PM 49.6090 -51.4980 68° East 501 577 36,000  Level FlightAware
09:56PM 49.6580 -51.3090 68° East 497 572 36,000  Level FlightAware
09:57PM 49.6880 -51.1870 69° East 497 572 36,000  Level FlightAware
09:58PM 49.7160 -51.0750 69° East 497 572 36,000  Level FlightAware
09:58PM 49.7440 -50.9620 69° East 497 572 36,000  Level FlightAware
09:59PM 49.7720 -50.8490 69° East 497 572 36,000  Level FlightAware
10:00PM 49.8070 -50.7070 69° East 497 572 36,000  Level FlightAware
10:00PM 49.8350 -50.5940 69° East 497 572 36,000  Level FlightAware
10:01PM 49.8630 -50.4810 69° East 497 572 36,000  Level FlightAware
10:02PM 49.8910 -50.3680 69° East 497 572 36,000  Level FlightAware
10:02PM 49.9190 -50.2540 69° East 497 572 36,000  Level FlightAware
10:03PM 49.9540 -50.1130 69° East 497 572 36,000  Level FlightAware
10:04PM 49.9820 -49.9990 69° East 497 572 36,000  Level FlightAware
10:04PM 50.0000 -50.0000 69° East 484 557 36,000  Level ETMS Enhanced Traffic Management System
10:05PM 50.0100 -49.8860 69° East 497 572 36,000  Level FlightAware
10:05PM 50.1000 -49.4667 69° East 480 552 36,000  Level Gander Center
10:05PM 50.0450 -49.7440 69° East 497 572 36,000  Level FlightAware
10:06PM 50.0730 -49.6300 69° East 497 572 36,000  Level FlightAware
10:06PM 50.1500 -49.3000 65° Northeast 470 541 36,000  Level Gander Center
10:07PM 50.2000 -49.1000 69° East 470 541 36,000  Level Gander Center
10:08PM 50.2333 -48.9000 75° East 470 541 36,000  Level Gander Center
10:09PM 50.2833 -48.7000 69° East 470 541 36,000  Level Gander Center
10:10PM 50.3333 -48.5333 65° Northeast 470 541 36,000  Level Gander Center
10:12PM 50.4000 -48.2167 72° East 450 518 36,000  Level Gander Center
10:13PM 50.4500 -48.0333 67° East 470 541 36,000  Level Gander Center
10:15PM 50.5136 -47.7606 70° East  Level FlightAware Approximate
10:22PM 50.8292 -46.3524 70° East  Level FlightAware Approximate
10:23PM 50.8729 -46.1497 71° East  Level FlightAware Approximate
10:24PM 50.9163 -45.9466 71° East  Level FlightAware Approximate
10:25PM 50.9593 -45.7431 71° East  Level FlightAware Approximate
10:26PM 51.0019 -45.5393 72° East  Level FlightAware Approximate
10:27PM 51.0442 -45.3350 72° East  Level FlightAware Approximate
10:28PM 51.0861 -45.1305 72° East  Level FlightAware Approximate
10:29PM 51.1277 -44.9255 72° East  Level FlightAware Approximate
10:30PM 51.1689 -44.7202 72° East  Level FlightAware Approximate
10:31PM 51.2097 -44.5145 72° East  Level FlightAware Approximate
10:32PM 51.2502 -44.3084 72° East  Level FlightAware Approximate
10:33PM 51.2904 -44.1020 73° East  Level FlightAware Approximate
10:34PM 51.3301 -43.8952 73° East  Level FlightAware Approximate
10:35PM 51.3695 -43.6881 73° East  Level FlightAware Approximate
10:36PM 51.4086 -43.4806 73° East  Level FlightAware Approximate
10:37PM 51.4472 -43.2728 73° East  Level FlightAware Approximate
10:38PM 51.4855 -43.0646 73° East  Level FlightAware Approximate
10:39PM 51.5234 -42.8560 74° East  Level FlightAware Approximate
10:40PM 51.5610 -42.6471 74° East  Level FlightAware Approximate
10:41PM 51.5982 -42.4379 74° East  Level FlightAware Approximate
10:42PM 51.6350 -42.2283 74° East  Level FlightAware Approximate
10:43PM 51.6715 -42.0184 74° East  Level FlightAware Approximate
10:44PM 51.7075 -41.8082 74° East  Level FlightAware Approximate
10:45PM 51.7432 -41.5976 75° East  Level FlightAware Approximate
10:46PM 51.7785 -41.3867 75° East  Level FlightAware Approximate
10:47PM 51.8135 -41.1754 75° East  Level FlightAware Approximate
10:48PM 51.8480 -40.9639 75° East  Level FlightAware Approximate
10:49PM 51.8822 -40.7520 75° East  Level FlightAware Approximate
10:50PM 51.9160 -40.5398 75° East  Level FlightAware Approximate
10:51PM 51.9494 -40.3273 76° East  Level FlightAware Approximate
10:52PM 51.9824 -40.1144 76° East  Level FlightAware Approximate
10:53PM 52.0143 -39.9010 77° East  Level FlightAware Approximate
10:54PM 52.0450 -39.6869 77° East  Level FlightAware Approximate
10:55PM 52.0753 -39.4726 77° East  Level FlightAware Approximate
10:56PM 52.1052 -39.2579 77° East  Level FlightAware Approximate
10:57PM 52.1347 -39.0430 77° East  Level FlightAware Approximate
10:58PM 52.1638 -38.8278 77° East  Level FlightAware Approximate
10:58PM 52.0000 -40.0000 77° East 493 567 36,000  Level ETMS Enhanced Traffic Management System
10:59PM 52.1926 -38.6123 78° East  Level FlightAware Approximate
11:00PM 52.2209 -38.3965 78° East  Level FlightAware Approximate
11:01PM 52.2488 -38.1804 78° East  Level FlightAware Approximate
11:02PM 52.2764 -37.9641 78° East  Level FlightAware Approximate
11:03PM 52.3035 -37.7475 78° East  Level FlightAware Approximate
11:04PM 52.3218 -37.6003 79° East 493 567 36,000  Level FlightAware Transoceanic
11:05PM 52.3486 -37.3805 79° East 493 567 36,000  Level FlightAware Transoceanic
11:06PM 52.3750 -37.1604 79° East 493 567 36,000  Level FlightAware Transoceanic
11:07PM 52.4010 -36.9401 79° East 493 567 36,000  Level FlightAware Transoceanic
11:08PM 52.4266 -36.7195 79° East 493 567 36,000  Level FlightAware Transoceanic
11:09PM 52.4518 -36.4986 79° East 493 567 36,000  Level FlightAware Transoceanic
11:10PM 52.4766 -36.2775 80° East 493 567 36,000  Level FlightAware Transoceanic
11:11PM 52.5009 -36.0561 80° East 493 567 36,000  Level FlightAware Transoceanic
11:12PM 52.5249 -35.8345 80° East 493 567 36,000  Level FlightAware Transoceanic
11:13PM 52.5484 -35.6127 80° East 493 567 36,000  Level FlightAware Transoceanic
11:14PM 52.5715 -35.3906 80° East 493 567 36,000  Level FlightAware Transoceanic
11:15PM 52.5942 -35.1683 81° East 493 567 36,000  Level FlightAware Transoceanic
11:16PM 52.6165 -34.9457 81° East 493 567 36,000  Level FlightAware Transoceanic
11:17PM 52.6384 -34.7229 81° East 493 567 36,000  Level FlightAware Transoceanic
11:18PM 52.6598 -34.5000 81° East 493 567 36,000  Level FlightAware Transoceanic
11:19PM 52.6809 -34.2767 81° East 493 567 36,000  Level FlightAware Transoceanic
11:20PM 52.7015 -34.0533 81° East 493 567 36,000  Level FlightAware Transoceanic
11:21PM 52.7217 -33.8297 82° East 493 567 36,000  Level FlightAware Transoceanic
11:22PM 52.7415 -33.6059 82° East 493 567 36,000  Level FlightAware Transoceanic
11:23PM 52.7608 -33.3818 82° East 493 567 36,000  Level FlightAware Transoceanic
11:24PM 52.7797 -33.1576 82° East 493 567 36,000  Level FlightAware Transoceanic
11:25PM 52.7982 -32.9332 82° East 493 567 36,000  Level FlightAware Transoceanic
11:26PM 52.8163 -32.7086 83° East 493 567 36,000  Level FlightAware Transoceanic
11:27PM 52.8340 -32.4838 83° East 493 567 36,000  Level FlightAware Transoceanic
11:28PM 52.8512 -32.2588 83° East 493 567 36,000  Level FlightAware Transoceanic
11:29PM 52.8680 -32.0336 83° East 493 567 36,000  Level FlightAware Transoceanic
11:30PM 52.8844 -31.8083 83° East 493 567 36,000  Level FlightAware Transoceanic
11:31PM 52.9003 -31.5828 83° East 493 567 36,000  Level FlightAware Transoceanic
11:32PM 52.9159 -31.3571 84° East 493 567 36,000  Level FlightAware Transoceanic
11:33PM 52.9310 -31.1313 84° East 493 567 36,000  Level FlightAware Transoceanic
11:34PM 52.9456 -30.9054 84° East 493 567 36,000  Level FlightAware Transoceanic
11:35PM 52.9599 -30.6792 84° East 493 567 36,000  Level FlightAware Transoceanic
11:36PM 52.9737 -30.4530 84° East 493 567 36,000  Level FlightAware Transoceanic
11:37PM 52.9870 -30.2265 84° East 493 567 36,000  Level FlightAware Transoceanic
11:38PM 52.9998 -30.0029 84° East  Level FlightAware Approximate
11:39PM 53.0121 -29.7791 85° East  Level FlightAware Approximate
11:40PM 53.0090 -29.7816 86° East  Level FlightAware Approximate
11:41PM 53.0178 -29.5573 86° East  Level FlightAware Approximate
11:42PM 53.0262 -29.3329 86° East  Level FlightAware Approximate
11:43PM 53.0341 -29.1084 87° East  Level FlightAware Approximate
11:44PM 53.0417 -28.8838 87° East  Level FlightAware Approximate
11:45PM 53.0488 -28.6592 87° East  Level FlightAware Approximate
11:46PM 53.0555 -28.4345 87° East  Level FlightAware Approximate
11:47PM 53.0617 -28.2097 87° East  Level FlightAware Approximate
11:48PM 53.0676 -27.9849 87° East  Level FlightAware Approximate
11:48PM 53.0000 -30.0000 86° East 515 593 36,000  Level ETMS Enhanced Traffic Management System
11:49PM 53.0730 -27.7600 88° East  Level FlightAware Approximate
11:50PM 53.0780 -27.5350 88° East  Level FlightAware Approximate
11:51PM 53.0826 -27.3100 88° East  Level FlightAware Approximate
11:52PM 53.0867 -27.0850 88° East  Level FlightAware Approximate
11:53PM 53.0904 -26.8599 88° East  Level FlightAware Approximate
11:54PM 53.0990 -26.1923 89° East 515 593 36,000  Level FlightAware Transoceanic
11:55PM 53.1011 -25.9539 89° East 515 593 36,000  Level FlightAware Transoceanic
11:56PM 53.1028 -25.7154 89° East 515 593 36,000  Level FlightAware Transoceanic
11:57PM 53.1040 -25.4770 90° East 515 593 36,000  Level FlightAware Transoceanic
11:58PM 53.1047 -25.2385 90° East 515 593 36,000  Level FlightAware Transoceanic
11:59PM 53.1049 -25.0000 90° East 515 593 36,000  Level FlightAware Transoceanic
12:00AM 53.1047 -24.7615 90° East 515 593 36,000  Level FlightAware Transoceanic
12:01AM 53.1040 -24.5230 90° East 515 593 36,000  Level FlightAware Transoceanic
12:02AM 53.1028 -24.2846 91° East 515 593 36,000  Level FlightAware Transoceanic
12:03AM 53.1011 -24.0461 91° East 515 593 36,000  Level FlightAware Transoceanic
12:04AM 53.0990 -23.8077 91° East 515 593 36,000  Level FlightAware Transoceanic
12:05AM 53.0964 -23.5693 91° East 515 593 36,000  Level FlightAware Transoceanic
12:06AM 53.0933 -23.3309 91° East 515 593 36,000  Level FlightAware Transoceanic
12:07AM 53.0897 -23.0926 92° East 515 593 36,000  Level FlightAware Transoceanic
12:08AM 53.0856 -22.8543 92° East 515 593 36,000  Level FlightAware Transoceanic
12:09AM 53.0811 -22.6161 92° East 515 593 36,000  Level FlightAware Transoceanic
12:10AM 53.0761 -22.3779 92° East 515 593 36,000  Level FlightAware Transoceanic
12:11AM 53.0706 -22.1397 92° East 515 593 36,000  Level FlightAware Transoceanic
12:12AM 53.0647 -21.9017 92° East 515 593 36,000  Level FlightAware Transoceanic
12:13AM 53.0583 -21.6637 93° East 515 593 36,000  Level FlightAware Transoceanic
12:14AM 53.0514 -21.4257 93° East 515 593 36,000  Level FlightAware Transoceanic
12:15AM 53.0440 -21.1879 93° East 515 593 36,000  Level FlightAware Transoceanic
12:16AM 53.0361 -20.9501 93° East 515 593 36,000  Level FlightAware Transoceanic
12:17AM 53.0278 -20.7124 93° East 515 593 36,000  Level FlightAware Transoceanic
12:18AM 53.0190 -20.4749 94° East 515 593 36,000  Level FlightAware Transoceanic
12:19AM 53.0097 -20.2374 94° East 515 593 36,000  Level FlightAware Transoceanic
12:20AM 53.0005 -20.0132 94° East  Level FlightAware Approximate
12:21AM 52.9910 -19.7890 94° East  Level FlightAware Approximate
12:22AM 53.0178 -19.8039 81° East  Level FlightAware Approximate
12:23AM 53.0376 -19.5814 81° East  Level FlightAware Approximate
12:24AM 53.0570 -19.3588 82° East  Level FlightAware Approximate
12:25AM 53.0759 -19.1359 82° East  Level FlightAware Approximate
12:26AM 53.0945 -18.9129 82° East  Level FlightAware Approximate
12:27AM 53.1126 -18.6897 82° East  Level FlightAware Approximate
12:28AM 53.1303 -18.4663 82° East  Level FlightAware Approximate
12:29AM 53.1476 -18.2427 83° East  Level FlightAware Approximate
12:30AM 53.1644 -18.0189 83° East  Level FlightAware Approximate
12:31AM 53.1809 -17.7950 83° East  Level FlightAware Approximate
12:32AM 53.1969 -17.5709 83° East  Level FlightAware Approximate
12:33AM 53.2125 -17.3466 83° East  Level FlightAware Approximate
12:34AM 53.2277 -17.1221 83° East  Level FlightAware Approximate
12:35AM 53.2425 -16.8976 84° East  Level FlightAware Approximate
12:36AM 53.2568 -16.6728 84° East  Level FlightAware Approximate
12:37AM 53.2707 -16.4479 84° East  Level FlightAware Approximate
12:38AM 53.2842 -16.2229 84° East  Level FlightAware Approximate
12:39AM 53.2973 -15.9977 84° East  Level FlightAware Approximate
12:40AM 53.3099 -15.7724 85° East  Level FlightAware Approximate
12:41AM 53.3222 -15.5469 85° East  Level FlightAware Approximate
12:42AM 53.3339 -15.3213 85° East  Level FlightAware Approximate
12:43AM 53.3453 -15.0956 85° East  Level FlightAware Approximate
12:44AM 53.3564 -14.8699 85° East  Level FlightAware Approximate
12:45AM 53.3673 -14.6440 85° East  Level FlightAware Approximate
12:46AM 53.3777 -14.4180 85° East  Level FlightAware Approximate
12:47AM 53.3877 -14.1919 86° East  Level FlightAware Approximate
12:48AM 53.3973 -13.9657 86° East  Level FlightAware Approximate
12:48AM 53.1070 -13.5190 86° East 535 616 36,000  Level FlightAware
12:49AM 53.4070 -13.7394 86° East  Level FlightAware Approximate
12:49AM 53.1290 -13.2420 82° East 536 617 36,000  Level FlightAware
12:50AM 53.4165 -13.5131 86° East  Level FlightAware Approximate
12:50AM 53.1440 -13.0650 82° East 536 617 36,000  Level FlightAware
12:52AM 53.1740 -12.6360 83° East 539 620 36,000  Level FlightAware
12:54AM 53.1980 -12.2317 84° East  Level Estimated
12:54AM 53.2140 -12.0410 84° East 537 618 36,000  Level FlightAware
12:55AM 53.2340 -11.7300 84° East 536 617 36,000  Level FlightAware
12:56AM 53.2470 -11.5260 84° East 536 617 36,000  Level FlightAware
12:58AM 53.2700 -11.1370 84° East 535 616 36,000  Level FlightAware
12:59AM 53.2870 -10.8490 84° East 534 615 36,000  Level FlightAware
01:01AM 53.3090 -10.4410 85° East 534 615 36,000  Level FlightAware
01:01AM 53.3180 -10.2530 85° East 534 615 36,000  Level FlightAware
01:03AM 53.3330 -9.9460 85° East 534 615 36,000  Level FlightAware
01:04AM 53.3470 -9.6570 85° East 534 615 36,000  Level FlightAware
01:06AM 53.3587 -9.2685 87° East  Level Estimated
01:06AM 53.3670 -9.2080 87° East 533 613 36,000  Level FlightAware
01:06AM 53.3897 -8.9773 87° East 452 520 34,500 -1,440 Descending FlightAware UK
01:07AM 53.3928 -8.9036 86° East 454 522 34,500  Level FlightAware UK
01:07AM 53.3957 -8.8296 86° East 454 522 34,500  Level FlightAware UK
01:07AM 53.3986 -8.7559 86° East 454 522 34,500  Level FlightAware UK
01:08AM 53.4017 -8.6823 86° East 452 520 34,500  Level FlightAware UK
01:08AM 53.4046 -8.6087 86° East 452 520 34,500  Level FlightAware UK
01:08AM 53.4072 -8.5349 87° East 450 518 34,500  Level FlightAware UK
01:09AM 53.4098 -8.4612 87° East 452 520 34,500  Level FlightAware UK
01:09AM 53.4124 -8.3867 87° East 452 520 34,500  Level FlightAware UK
01:09AM 53.4149 -8.3131 87° East 452 520 34,500  Level FlightAware UK
01:09AM 53.4174 -8.2393 87° East 450 518 34,500  Level FlightAware UK
01:10AM 53.4201 -8.1653 87° East 450 518 34,500  Level FlightAware UK
01:10AM 53.4226 -8.0912 87° East 450 518 34,500  Level FlightAware UK
01:10AM 53.4249 -8.0171 87° East 450 518 34,500  Level FlightAware UK
01:11AM 53.4272 -7.9429 87° East 450 518 34,500 4,680 Level FlightAware UK
01:11AM 53.4120 -7.9740 87° East 533 613 36,000  Climbing FlightAware
01:11AM 53.4295 -7.8687 87° East 450 518 34,500 -2,580 Descending FlightAware UK
01:11AM 53.4318 -7.7946 87° East 452 520 34,500  Level FlightAware UK
01:12AM 53.4340 -7.7205 87° East 450 518 34,500  Level FlightAware UK
01:12AM 53.4362 -7.6464 87° East 450 518 34,500  Level FlightAware UK
01:12AM 53.4385 -7.5723 87° East 450 518 34,500  Level FlightAware UK
01:12AM 53.4406 -7.4982 87° East 452 520 34,500  Level FlightAware UK
01:13AM 53.4426 -7.4241 87° East 452 520 34,500  Level FlightAware UK
01:13AM 53.4446 -7.3499 87° East 452 520 34,500  Level FlightAware UK
01:13AM 53.4466 -7.2758 87° East 452 520 34,500 3,300 Level FlightAware UK
01:13AM 53.4330 -7.2720 87° East 534 615 36,000  Climbing FlightAware
01:14AM 53.4491 -7.1760 87° East 452 520 34,500 -2,760 Descending FlightAware UK
01:14AM 53.4509 -7.1018 88° East 452 520 34,500  Level FlightAware UK
01:14AM 53.4529 -7.0277 87° East 452 520 34,500  Level FlightAware UK
01:15AM 53.4547 -6.9536 88° East 452 520 34,500  Level FlightAware UK
01:15AM 53.4565 -6.8794 88° East 452 520 34,500  Level FlightAware UK
01:15AM 53.4582 -6.8051 88° East 454 522 34,500 -360 Level FlightAware UK
01:16AM 53.4598 -6.7307 88° East 460 529 34,300 -1,020 Descending FlightAware UK
01:16AM 53.4615 -6.6559 88° East 462 532 33,900 3,240 Descending FlightAware UK
01:16AM 53.4470 -6.6740 88° East 543 625 35,500 -1,260 Climbing FlightAware
01:16AM 53.4635 -6.5540 88° East 468 539 33,400 -3,840 Descending FlightAware UK
01:17AM 53.4649 -6.4787 88° East 464 534 33,100 2,400 Descending FlightAware UK
01:17AM 53.4510 -6.4800 88° East 539 620 34,600 -2,040 Climbing FlightAware
01:17AM 53.4674 -6.3532 88° East 464 534 32,100 -5,520 Descending FlightAware UK
01:17AM 53.4687 -6.2786 88° East 468 539 31,300 -2,700 Descending FlightAware UK
01:18AM 53.4700 -6.2040 88° East 470 541 30,500 -2,700 Descending FlightAware UK
01:18AM 53.4712 -6.1292 88° East 472 543 29,700 -2,880 Descending FlightAware UK
01:18AM 53.4724 -6.0544 88° East 470 541 28,800 1,800 Descending FlightAware UK
01:18AM 53.4580 -6.0670 88° East 538 619 30,400 -3,300 Climbing FlightAware
01:19AM 53.4741 -5.9545 88° East 476 548 27,500 -6,180 Descending FlightAware UK
01:19AM 53.4723 -5.8780 92° East 478 550 26,600 -2,880 Descending FlightAware UK
01:19AM 53.4659 -5.8047 98° East 474 545 25,800 -1,680 Descending FlightAware UK
01:20AM 53.4591 -5.7321 99° East 470 541 25,600 2,220 Descending FlightAware UK
01:20AM 53.4400 -5.6920 99° East 523 602 27,100 -180 Climbing FlightAware
01:20AM 53.4449 -5.5883 99° East 470 541 25,500 -2,640 Descending FlightAware UK
01:20AM 53.4377 -5.5163 99° East 472 543 25,500 4,260 Level FlightAware UK
01:20AM 53.4250 -5.5340 99° East 526 605 27,000  Climbing FlightAware
01:21AM 53.4305 -5.4441 99° East 474 545 25,500 -2,760 Descending FlightAware UK
01:21AM 53.4233 -5.3718 99° East 474 545 25,500 2,520 Level FlightAware UK
01:21AM 53.4050 -5.3310 100° East 524 603 27,000  Climbing FlightAware
01:21AM 53.4161 -5.2996 100° East 474 545 25,500 -4,740 Descending FlightAware UK
01:22AM 53.4085 -5.2276 100° East 474 545 25,500  Level FlightAware UK
01:22AM 53.4009 -5.1556 100° East 476 548 25,500 2,880 Level FlightAware UK
01:22AM 53.3870 -5.1610 100° East 524 603 27,000 -420 Climbing FlightAware
01:22AM 53.3942 -5.0344 100° East 470 541 25,300 -4,320 Descending FlightAware UK
01:23AM 53.3934 -4.9622 91° East 466 536 24,500 1,260 Descending FlightAware UK
01:23AM 53.3800 -4.9580 91° East 513 590 25,800 -2,760 Climbing FlightAware
01:23AM 53.3926 -4.8675 91° East 454 522 23,400 -1,920 Descending FlightAware UK
01:23AM 53.3790 -4.8220 91° East 504 580 24,700 -1,380 Climbing FlightAware
01:23AM 53.3920 -4.7974 91° East 450 518 23,000 -6,300 Descending FlightAware UK
01:24AM 53.3915 -4.7275 91° East 448 516 22,600 -1,500 Descending FlightAware UK
01:24AM 53.3906 -4.6581 91° East 448 516 22,100 1,800 Descending FlightAware UK
01:24AM 53.3770 -4.6350 91° East 496 571 23,500 -1,440 Climbing FlightAware
01:25AM 53.3886 -4.5433 91° East 440 506 21,400 -4,260 Descending FlightAware UK
01:25AM 53.3872 -4.4744 92° East 438 504 20,900 3,000 Descending FlightAware UK
01:25AM 53.3740 -4.4790 92° East 489 563 22,500 -1,380 Climbing FlightAware
01:25AM 53.3857 -4.4065 92° East 436 502 20,500 -4,380 Descending FlightAware UK
01:25AM 53.3840 -4.3389 92° East 434 499 20,100 2,400 Descending FlightAware UK
01:26AM 53.3710 -4.3270 92° East 482 555 21,500 -1,500 Climbing FlightAware
01:26AM 53.3817 -4.2495 92° East 432 497 19,500 -4,140 Descending FlightAware UK
01:26AM 53.3803 -4.1833 92° East 428 493 19,100 2,100 Descending FlightAware UK
01:26AM 53.3670 -4.1700 92° East 471 542 20,500 -1,440 Climbing FlightAware
01:27AM 53.3783 -4.0750 92° East 420 483 18,400 -3,960 Descending FlightAware UK
01:27AM 53.3777 -4.0096 91° East 418 481 18,000 3,900 Descending FlightAware UK
01:27AM 53.3660 -4.0450 91° East 468 539 19,700 -1,680 Climbing FlightAware
01:27AM 53.3774 -3.9448 91° East 414 476 17,500 -5,340 Descending FlightAware UK
01:28AM 53.3811 -3.8811 84° East 412 474 16,700 1,740 Descending FlightAware UK
01:28AM 53.3700 -3.8840 84° East 456 525 18,200 -1,800 Climbing FlightAware
01:28AM 53.3889 -3.7976 84° East 404 465 16,000 -4,680 Descending FlightAware UK
01:28AM 53.3976 -3.7374 76° East 402 463 15,400 1,500 Descending FlightAware UK
01:28AM 53.3880 -3.7300 76° East 439 505 16,700 -2,040 Climbing FlightAware
01:29AM 53.4086 -3.6583 76° East 394 453 14,600 -4,920 Descending FlightAware UK
01:29AM 53.4166 -3.6000 77° East 386 444 14,000 1,380 Descending FlightAware UK
01:29AM 53.4090 -3.5840 77° East 422 486 15,300 -1,800 Climbing FlightAware
01:29AM 53.4296 -3.5048 77° East 380 437 13,100 -4,500 Descending FlightAware UK
01:30AM 53.4373 -3.4487 77° East 374 430 12,600 2,700 Descending FlightAware UK
01:30AM 53.4260 -3.4600 77° East 405 466 14,100 -2,040 Climbing FlightAware
01:30AM 53.4474 -3.3765 77° East 366 421 11,800 -4,320 Descending FlightAware UK
01:30AM 53.4549 -3.3224 77° East 358 412 11,400 3,900 Descending FlightAware UK
01:30AM 53.4410 -3.3540 77° East 390 449 13,100 -720 Climbing FlightAware
01:31AM 53.4621 -3.2709 77° East 350 403 11,200 -4,980 Descending FlightAware UK
01:31AM 53.4692 -3.2197 77° East 358 412 10,300 780 Descending FlightAware UK
01:31AM 53.4620 -3.2090 77° East 382 440 11,600 -1,620 Climbing FlightAware
01:32AM 53.4813 -3.1327 77° East 346 398 9,500 -4,260 Descending FlightAware UK
01:32AM 53.4882 -3.0823 77° East 334 384 9,000 2,820 Descending FlightAware UK
01:32AM 53.4780 -3.0920 77° East 361 415 10,500 -1,680 Climbing FlightAware
01:32AM 53.4947 -3.0342 77° East 320 368 8,500 -1,020 Descending FlightAware UK
01:32AM 53.4890 -3.0160 77° East 329 379 10,000 -240 Climbing FlightAware
01:33AM 53.5047 -2.9601 77° East 280 322 8,400 -1,020 Descending FlightAware UK
01:33AM 53.4990 -2.9430 77° East 308 354 9,500 -2,220 Climbing FlightAware
01:33AM 53.5140 -2.8903 77° East 276 318 7,300 -1,620 Descending FlightAware UK
01:33AM 53.5090 -2.8720 77° East 297 342 8,700 -840 Climbing FlightAware
01:34AM 53.5232 -2.8224 77° East 264 304 6,900 -960 Descending FlightAware UK
01:34AM 53.5160 -2.8210 77° East 290 334 8,300 -1,020 Climbing FlightAware
01:34AM 53.5320 -2.7564 77° East 256 295 6,400 -600 Descending FlightAware UK
01:34AM 53.5250 -2.7530 77° East 288 331 8,000 180 Climbing FlightAware
01:35AM 53.5396 -2.6906 77° East 260 299 6,500  Descending FlightAware UK
01:35AM 53.5320 -2.6970 77° East 292 336 8,000 -540 Climbing FlightAware
01:35AM 53.5465 -2.6365 77° East 258 297 6,300 -600 Descending FlightAware UK
01:35AM 53.5410 -2.6300 77° East 289 333 7,700 -1,020 Climbing FlightAware
01:36AM 53.5552 -2.5705 77° East 254 292 5,800 -1,200 Descending FlightAware UK
01:36AM 53.5490 -2.5660 77° East 287 330 7,100 1,980 Climbing FlightAware
01:36AM 53.5550 -2.5120 79° East 288 331 7,000 -2,280 Descending FlightAware
01:36AM 53.5658 -2.4517 79° East 256 295 5,500  Descending FlightAware UK
01:37AM 53.5590 -2.4420 79° East 289 333 7,000 -420 Climbing FlightAware
01:37AM 53.5700 -2.3841 79° East 254 292 5,300 -720 Descending FlightAware UK
01:37AM 53.5630 -2.3890 79° East 284 327 6,700 -1,260 Climbing FlightAware
01:37AM 53.5733 -2.3312 79° East 248 285 4,800 -1,200 Descending FlightAware UK
01:38AM 53.5670 -2.3220 79° East 285 328 6,100 -1,020 Climbing FlightAware
01:38AM 53.5776 -2.2649 79° East 248 285 4,300 -960 Descending FlightAware UK
01:38AM 53.5710 -2.2660 79° East 283 326 5,700 2,100 Climbing FlightAware
01:38AM 53.5740 -2.2260 83° East 283 326 5,300 -3,600 Descending FlightAware
01:39AM 53.5850 -2.1596 83° East 250 288 3,300 -960 Descending FlightAware UK
01:39AM 53.5790 -2.1710 83° East 280 322 4,900 4,500 Climbing FlightAware
01:39AM 53.5790 -2.1400 90° East 267 307 4,800 -3,120 Descending FlightAware
01:39AM 53.5785 -2.0863 90° East 246 283 3,300  Descending FlightAware UK
01:39AM 53.5700 -2.0900 90° East 265 305 4,800 -720 Climbing FlightAware
01:40AM 53.5695 -2.0385 90° East 238 274 3,000 -1,020 Descending FlightAware UK
01:40AM 53.5590 -2.0320 90° East 251 289 4,300 2,460 Climbing FlightAware
01:40AM 53.5510 -2.0090 120° Southeast 227 261 4,200 -3,360 Descending FlightAware
01:40AM 53.5416 -1.9669 120° Southeast 210 242 2,400 -480 Descending FlightAware UK
01:41AM 53.5330 -1.9790 120° Southeast 209 241 4,000 3,960 Climbing FlightAware
01:41AM 53.5210 -1.9670 149° Southeast 176 203 3,800 -2,880 Descending FlightAware
01:41AM 53.5099 -1.9533 149° Southeast 190 219 2,300  Descending FlightAware UK
01:41AM 53.5020 -1.9730 149° Southeast 153 176 3,800 3,720 Climbing FlightAware
01:42AM 53.4950 -1.9850 226° Southwest 153 176 3,800 -300 Level FlightAware
01:42AM 53.4840 -2.0090 232° Southwest 154 177 3,600 -480 Descending FlightAware
01:42AM 53.4790 -2.0200 233° Southwest 154 177 3,500 -540 Descending FlightAware
01:43AM 53.4640 -2.0520 232° Southwest 158 182 3,200 -600 Descending FlightAware
01:43AM 53.4540 -2.0740 233° Southwest 156 180 3,000 -2,340 Descending FlightAware
01:44AM 53.4450 -2.0854 233° Southwest 188 216 1,300 -420 Descending FlightAware UK
01:44AM 53.4390 -2.1050 233° Southwest 154 177 2,800 -1,020 Climbing FlightAware
01:44AM 53.4342 -2.1078 233° Southwest 180 207 900 -960 Descending FlightAware UK
01:44AM 53.4290 -2.1280 233° Southwest 149 171 2,400 1,740 Climbing FlightAware
01:45AM 53.4160 -2.1550 231° Southwest 142 163 2,000 -2,820 Descending FlightAware
01:45AM 53.4120 -2.1543 231° Southwest 160 184 200 -840 Descending FlightAware UK
01:45AM 53.4040 -2.1800 231° Southwest 139 160 1,600 2,160 Climbing FlightAware
01:45AM 53.3970 -2.1950 232° Southwest 121 139 1,400 -600 Descending FlightAware
01:46AM 53.3910 -2.2100 236° Southwest 110 127 1,200 -600 Descending FlightAware
01:46AM 53.3810 -2.2300 230° Southwest 111 128 900 -660 Descending FlightAware
01:47AM 53.3730 -2.2470 232° Southwest 113 130 600 -660 Descending FlightAware
01:47AM 53.3630 -2.2690 233° Southwest 124 143 300 -720 Descending FlightAware
01:47AM 53.3570 -2.2820 232° Southwest 128 147 100 -840 Descending FlightAware